Alaska, Minnesota
Current Conditions -  °F | °C
As of 4:13 AM on Tuesday 27 Jan 2015 (Local Time) from KBJI Reporting Station
Haze Haze  
Wind Chill: 24°   Ceiling: 200
Heat Index: 24°   Visibility: 2mi
Dew Point: 23°   Wind: 3mph
Humidity: 97%   Direction: 150°SSE
Pressure: 30.03"   Gusts: NA
Location:  47.7369°N, 94.9947°W
Report Text: KBJI 271013Z AUTO 15003KT 2SM BR OVC002 M05/M05 A3003 RMK AO2 T10461050
Loading
Personal Weather Stations






























Interactive Weather Map New forecast layout! Learn more

10-Day Weather Forecast

Advertisements
Track Severe Weather on mobile